createdAt,value
2023-04-21T00:00:59.455Z,99177.34
2023-04-21T00:03:37.260Z,99177.30
2023-04-21T00:06:11.330Z,99174.65
2023-04-21T00:08:44.763Z,99178.06
2023-04-21T00:11:18.531Z,99168.49
2023-04-21T00:13:51.964Z,99169.30
2023-04-21T00:16:25.666Z,99170.11
2023-04-21T00:18:59.545Z,99165.70
2023-04-21T00:21:33.212Z,99166.52
2023-04-21T00:24:08.263Z,99170.78
2023-04-21T00:26:44.916Z,99157.72
2023-04-21T00:29:19.100Z,99166.34
2023-04-21T00:31:53.352Z,99164.55
2023-04-21T00:34:26.941Z,99164.50
2023-04-21T00:37:00.633Z,99167.05
2023-04-21T00:39:34.145Z,99162.67
2023-04-21T00:42:07.968Z,99164.39
2023-04-21T00:44:41.574Z,99159.11
2023-04-21T00:47:15.304Z,99159.07
2023-04-21T00:49:49.447Z,99162.48
2023-04-21T00:52:23.346Z,99160.68
2023-04-21T00:54:57.582Z,99154.52
2023-04-21T00:57:32.451Z,99148.39
2023-04-21T01:00:09.105Z,99145.69
2023-04-21T01:02:45.005Z,99144.80
2023-04-21T01:05:20.702Z,99143.81
2023-04-21T01:07:54.231Z,99142.03
2023-04-21T01:10:29.230Z,99140.27
2023-04-21T01:13:03.488Z,99137.59
2023-04-21T01:15:37.090Z,99139.33
2023-04-21T01:18:11.913Z,99139.30
2023-04-21T01:20:46.139Z,99135.78
2023-04-21T01:23:21.236Z,99132.30
2023-04-21T01:25:55.154Z,99134.81
2023-04-21T01:28:29.046Z,99140.80
2023-04-21T01:31:02.626Z,99135.53
2023-04-21T01:33:36.574Z,99127.66
2023-04-21T01:36:11.350Z,99127.50
2023-04-21T01:38:45.019Z,99128.31
2023-04-21T01:41:19.682Z,99130.88
2023-04-21T01:43:53.169Z,99128.23
2023-04-21T01:46:27.021Z,99127.26
2023-04-21T01:49:00.799Z,99121.98
2023-04-21T01:51:34.560Z,99124.52
2023-04-21T01:54:08.618Z,99126.98
2023-04-21T01:56:42.350Z,99121.61
2023-04-21T01:59:15.904Z,99123.23
2023-04-21T02:01:52.201Z,99117.93
2023-04-21T02:04:26.179Z,99123.02
2023-04-21T02:07:00.208Z,99124.73
2023-04-21T02:09:34.837Z,99122.91
2023-04-21T02:12:09.831Z,99122.82
2023-04-21T02:14:43.153Z,99128.78
2023-04-21T02:17:17.933Z,99123.53
2023-04-21T02:19:52.472Z,99129.46
2023-04-21T02:22:27.488Z,99116.44
2023-04-21T02:25:00.771Z,99124.19
2023-04-21T02:27:34.682Z,99120.58
2023-04-21T02:30:11.318Z,99123.95
2023-04-21T02:32:45.167Z,99125.58
2023-04-21T02:35:18.781Z,99116.05
2023-04-21T02:37:52.424Z,99132.45
2023-04-21T02:40:27.583Z,99127.34
2023-04-21T02:43:03.144Z,99127.37
2023-04-21T02:45:38.110Z,99131.72
2023-04-21T02:48:12.207Z,99130.02
2023-04-21T02:50:47.069Z,99130.02
2023-04-21T02:53:20.837Z,99119.63
2023-04-21T02:55:54.705Z,99120.48
2023-04-21T02:58:28.598Z,99121.38
2023-04-21T03:01:02.413Z,99123.17
2023-04-21T03:03:36.454Z,99127.52
2023-04-21T03:06:10.517Z,99123.23
2023-04-21T03:08:44.904Z,99125.83
2023-04-21T03:11:18.454Z,99129.34
2023-04-21T03:13:54.152Z,99127.73
2023-04-21T03:16:28.247Z,99128.75
2023-04-21T03:19:02.259Z,99127.20
2023-04-21T03:21:37.145Z,99126.48
2023-04-21T03:24:11.037Z,99132.56
2023-04-21T03:26:44.758Z,99136.91
2023-04-21T03:29:18.735Z,99127.41
2023-04-21T03:31:52.271Z,99130.12
2023-04-21T03:34:26.356Z,99127.55
2023-04-21T03:37:01.611Z,99125.88
2023-04-21T03:39:35.209Z,99130.27
2023-04-21T03:42:08.707Z,99124.36
2023-04-21T03:44:42.236Z,99125.33
2023-04-21T03:47:15.932Z,99125.45
2023-04-21T03:49:49.463Z,99125.58
2023-04-21T03:52:26.094Z,99130.02
2023-04-21T03:54:59.656Z,99118.88
2023-04-21T03:57:35.258Z,99119.84
2023-04-21T04:00:12.992Z,99120.82
2023-04-21T04:02:46.574Z,99121.84
2023-04-21T04:05:23.948Z,99125.42
2023-04-21T04:07:58.876Z,99128.17
2023-04-21T04:10:33.028Z,99137.90
2023-04-21T04:13:07.699Z,99134.59
2023-04-21T04:15:42.092Z,99134.78
2023-04-21T04:18:18.481Z,99135.84
2023-04-21T04:20:55.705Z,99122.09
2023-04-21T04:23:29.516Z,99125.72
2023-04-21T04:26:11.925Z,99132.83
2023-04-21T04:28:44.823Z,99131.22
2023-04-21T04:31:18.627Z,99128.77
2023-04-21T04:33:54.110Z,99121.95
2023-04-21T04:36:28.628Z,99120.36
2023-04-21T04:39:02.473Z,99124.78
2023-04-21T04:41:36.570Z,99117.11
2023-04-21T04:44:11.329Z,99122.45
2023-04-21T04:46:45.664Z,99124.31
2023-04-21T04:49:19.384Z,99121.90
2023-04-21T04:51:53.050Z,99120.27
2023-04-21T04:54:26.686Z,99122.13
2023-04-21T04:57:01.127Z,99117.02
2023-04-21T04:59:36.789Z,99116.23
2023-04-21T05:02:11.544Z,99118.12
2023-04-21T05:04:45.230Z,99118.27
2023-04-21T05:07:19.356Z,99120.98
2023-04-21T05:09:55.030Z,99119.38
2023-04-21T05:12:28.697Z,99111.66
2023-04-21T05:15:02.192Z,99105.62
2023-04-21T05:17:36.881Z,99106.61
2023-04-21T05:20:11.980Z,99102.41
2023-04-21T05:22:47.001Z,99101.63
2023-04-21T05:25:20.923Z,99101.69
2023-04-21T05:27:54.514Z,99100.03
2023-04-21T05:30:28.168Z,99093.98
2023-04-21T05:33:01.706Z,99091.47
2023-04-21T05:35:37.768Z,99090.62
2023-04-21T05:38:10.708Z,99089.82
2023-04-21T05:40:45.398Z,99088.11
2023-04-21T05:43:19.769Z,99088.16
2023-04-21T05:45:53.506Z,99099.53
2023-04-21T05:48:27.026Z,99096.95
2023-04-21T05:51:01.875Z,99086.55
2023-04-21T05:53:35.588Z,99092.70
2023-04-21T05:56:11.691Z,99086.64
2023-04-21T05:58:45.245Z,99092.75
2023-04-21T06:01:19.014Z,99087.55
2023-04-21T06:03:52.386Z,99084.11
2023-04-21T06:06:27.999Z,99089.32
2023-04-21T06:09:01.583Z,99092.82
2023-04-21T06:11:35.282Z,99082.38
2023-04-21T06:14:09.198Z,99079.78
2023-04-21T06:16:42.776Z,99079.78
2023-04-21T06:19:16.444Z,99079.80
2023-04-21T06:21:57.988Z,99068.47
2023-04-21T06:24:34.088Z,99064.97
2023-04-21T06:27:12.970Z,99070.22
2023-04-21T06:29:46.539Z,99069.33
2023-04-21T06:32:19.881Z,99064.96
2023-04-21T06:34:53.480Z,99058.86
2023-04-21T06:37:27.029Z,99058.80
2023-04-21T06:40:00.631Z,99065.42
2023-04-21T06:42:35.393Z,99053.59
2023-04-21T06:45:11.403Z,99046.19
2023-04-21T06:47:45.289Z,99039.67
2023-04-21T06:50:19.199Z,99032.83
2023-04-21T06:52:52.867Z,99038.64
2023-04-21T06:55:27.107Z,99020.32
2023-04-21T06:58:00.712Z,99031.58
2023-04-21T07:00:34.444Z,99021.72
2023-04-21T07:03:11.151Z,99026.76
2023-04-21T07:05:44.976Z,99017.09
2023-04-21T07:08:18.430Z,99022.83
2023-04-21T07:10:59.910Z,99005.98
2023-04-21T07:13:34.060Z,99011.42
2023-04-21T07:16:08.420Z,99012.45
2023-04-21T07:18:43.505Z,99011.66
2023-04-21T07:21:17.217Z,99017.54
2023-04-21T07:23:51.266Z,99009.93
2023-04-21T07:26:24.890Z,99010.05
2023-04-21T07:28:58.687Z,99009.03
2023-04-21T07:31:32.569Z,98999.72
2023-04-21T07:34:06.867Z,99009.54
2023-04-21T07:36:40.461Z,99007.41
2023-04-21T07:39:14.504Z,98994.44
2023-04-21T07:41:48.418Z,98997.59
2023-04-21T07:44:22.146Z,98995.50
2023-04-21T07:46:55.802Z,98987.25
2023-04-21T07:49:29.799Z,98984.84
2023-04-21T07:52:04.001Z,98990.45
2023-04-21T07:54:37.664Z,98982.83
2023-04-21T07:57:11.336Z,98997.19
2023-04-21T07:59:45.050Z,98993.84
2023-04-21T08:02:18.709Z,98993.83
2023-04-21T08:04:52.168Z,98981.59
2023-04-21T08:07:25.888Z,98971.61
2023-04-21T08:10:00.510Z,98967.85
2023-04-21T08:12:35.410Z,98978.14
2023-04-21T08:15:11.962Z,98969.97
2023-04-21T08:17:45.947Z,98966.09
2023-04-21T08:20:19.768Z,98968.48
2023-04-21T08:22:53.290Z,98954.83
2023-04-21T08:28:08.514Z,98946.83
2023-04-21T08:30:42.691Z,98953.95
2023-04-21T08:33:16.588Z,98952.00
2023-04-21T08:36:02.504Z,98939.92
2023-04-21T08:38:26.167Z,98949.80
2023-04-21T08:41:01.212Z,98938.78
2023-04-21T08:43:34.846Z,98947.06
2023-04-21T08:46:10.545Z,98936.78
2023-04-21T08:48:44.334Z,98926.41
2023-04-21T08:51:22.378Z,98942.70
2023-04-21T08:53:58.339Z,98931.38
2023-04-21T08:56:32.096Z,98925.22
2023-04-21T08:59:06.050Z,98921.95
2023-04-21T09:02:10.196Z,98911.91
2023-04-21T09:04:45.633Z,98916.28
2023-04-21T09:07:34.686Z,98919.19
2023-04-21T09:10:10.432Z,98908.80
2023-04-21T09:12:43.864Z,98898.78
2023-04-21T09:15:17.351Z,98900.73
2023-04-21T09:17:52.473Z,98891.36
2023-04-21T09:20:27.579Z,98900.90
2023-04-21T09:23:01.309Z,98904.22
2023-04-21T09:25:36.067Z,98893.39
2023-04-21T09:28:11.394Z,98882.98
2023-04-21T09:30:45.541Z,98872.22
2023-04-21T09:33:27.996Z,98879.06
2023-04-21T09:35:56.026Z,98886.95
2023-04-21T09:38:29.645Z,98886.89
2023-04-21T09:41:03.662Z,98886.23
2023-04-21T09:43:37.617Z,98878.56
2023-04-21T09:46:12.642Z,98872.91
2023-04-21T09:48:48.085Z,98869.67
2023-04-21T09:51:36.866Z,98876.40
2023-04-21T09:56:43.977Z,98866.27
2023-04-21T09:59:22.349Z,98870.84
2023-04-21T10:01:57.028Z,98865.75
2023-04-21T10:04:32.910Z,98865.98
2023-04-21T10:07:07.700Z,98864.27
2023-04-21T10:09:44.510Z,98859.44
2023-04-21T10:12:16.991Z,98857.47
2023-04-21T10:14:53.835Z,98857.62
2023-04-21T10:17:28.466Z,98858.47
2023-04-21T10:20:02.401Z,98862.89
2023-04-21T10:22:38.969Z,98847.64
2023-04-21T10:25:14.502Z,98853.16
2023-04-21T10:27:48.043Z,98845.95
2023-04-21T10:30:26.983Z,98832.14
2023-04-21T10:33:06.928Z,98833.41
2023-04-21T10:36:02.217Z,98837.82
2023-04-21T10:38:40.235Z,98837.09
2023-04-21T10:41:31.748Z,98834.65
2023-04-21T10:44:12.917Z,98835.27
2023-04-21T10:46:50.795Z,98843.91
2023-04-21T10:49:29.128Z,98820.30
2023-04-21T10:52:11.853Z,98815.38
2023-04-21T10:54:53.846Z,98809.88
2023-04-21T10:57:29.331Z,98815.23
2023-04-21T11:00:05.592Z,98816.77
2023-04-21T11:02:40.547Z,98815.52
2023-04-21T11:05:14.402Z,98806.00
2023-04-21T11:07:48.047Z,98812.14
2023-04-21T11:10:36.391Z,98804.37
2023-04-21T11:13:12.814Z,98796.64
2023-04-21T11:16:01.561Z,98810.85
2023-04-21T11:18:43.009Z,98811.87
2023-04-21T11:21:20.232Z,98816.28
2023-04-21T11:23:56.275Z,98807.88
2023-04-21T11:26:39.581Z,98814.64
2023-04-21T11:29:14.545Z,98797.19
2023-04-21T11:31:50.336Z,98799.61
2023-04-21T11:34:25.576Z,98800.33
2023-04-21T11:36:59.541Z,98794.64
2023-04-21T11:39:33.499Z,98791.05
2023-04-21T11:42:07.668Z,98790.38
2023-04-21T11:44:42.730Z,98795.40
2023-04-21T11:47:17.572Z,98778.33
2023-04-21T11:49:54.988Z,98780.08
2023-04-21T11:52:31.050Z,98772.98
2023-04-21T11:55:07.069Z,98764.86
2023-04-21T11:57:42.152Z,98766.81
2023-04-21T12:00:17.831Z,98765.95
2023-04-21T12:02:58.671Z,98765.17
2023-04-21T12:05:41.412Z,98763.28
2023-04-21T12:08:18.047Z,98761.62
2023-04-21T12:10:52.709Z,98753.67
2023-04-21T12:13:26.503Z,98746.25
2023-04-21T12:16:01.437Z,98744.98
2023-04-21T12:18:38.452Z,98738.31
2023-04-21T12:21:10.242Z,98742.83
2023-04-21T12:23:44.844Z,98743.06
2023-04-21T12:26:18.510Z,98742.56
2023-04-21T12:28:52.266Z,98736.34
2023-04-21T12:31:26.168Z,98732.06
2023-04-21T12:33:59.693Z,98731.03
2023-04-21T12:36:36.513Z,98724.52
2023-04-21T12:39:11.006Z,98727.97
2023-04-21T12:41:44.328Z,98721.78
2023-04-21T12:44:17.947Z,98731.22
2023-04-21T12:46:51.596Z,98722.94
2023-04-21T12:49:26.065Z,98717.29
2023-04-21T12:51:59.939Z,98736.77
2023-04-21T12:54:34.056Z,98733.95
2023-04-21T12:57:08.050Z,98733.50
2023-04-21T12:59:42.531Z,98729.53
2023-04-21T13:02:17.571Z,98733.11
2023-04-21T13:04:51.213Z,98731.76
2023-04-21T13:07:26.793Z,98730.84
2023-04-21T13:10:00.881Z,98720.03
2023-04-21T13:12:35.805Z,98726.91
2023-04-21T13:15:12.191Z,98719.48
2023-04-21T13:17:45.940Z,98701.02
2023-04-21T13:20:20.564Z,98695.39
2023-04-21T13:22:54.412Z,98686.34
2023-04-21T13:25:28.278Z,98698.05
2023-04-21T13:28:02.190Z,98699.73
2023-04-21T13:30:36.866Z,98699.23
2023-04-21T13:33:11.133Z,98697.63
2023-04-21T13:35:44.939Z,98705.63
2023-04-21T13:38:18.524Z,98698.73
2023-04-21T13:40:53.044Z,98689.81
2023-04-21T13:43:27.065Z,98701.23
2023-04-21T13:46:00.982Z,98693.66
2023-04-21T13:48:34.697Z,98691.09
2023-04-21T13:51:08.794Z,98690.80
2023-04-21T13:53:42.194Z,98689.98
2023-04-21T13:56:16.358Z,98683.16
2023-04-21T13:58:50.031Z,98681.43
2023-04-21T14:01:23.638Z,98670.73
2023-04-21T14:03:57.821Z,98664.67
2023-04-21T14:06:32.569Z,98667.15
2023-04-21T14:09:06.557Z,98658.55
2023-04-21T14:11:40.289Z,98653.13
2023-04-21T14:14:16.944Z,98658.60
2023-04-21T14:16:49.676Z,98659.97
2023-04-21T14:19:23.734Z,98667.15
2023-04-21T14:21:57.229Z,98670.63
2023-04-21T14:24:32.721Z,98670.10
2023-04-21T14:27:06.385Z,98668.70
2023-04-21T14:29:39.907Z,98663.55
2023-04-21T14:32:13.601Z,98663.28
2023-04-21T14:34:47.571Z,98650.08
2023-04-21T14:37:21.127Z,98659.24
2023-04-21T14:39:54.547Z,98651.64
2023-04-21T14:42:28.148Z,98651.66
2023-04-21T14:45:01.729Z,98650.09
2023-04-21T14:47:36.182Z,98654.65
2023-04-21T14:50:11.963Z,98646.22
2023-04-21T14:52:47.530Z,98646.64
2023-04-21T14:55:21.537Z,98646.74
2023-04-21T14:57:55.177Z,98650.31
2023-04-21T15:00:31.186Z,98645.87
2023-04-21T15:03:05.373Z,98651.98
2023-04-21T15:05:39.334Z,98655.48
2023-04-21T15:08:14.601Z,98649.00
2023-04-21T15:10:48.862Z,98657.80
2023-04-21T15:13:22.767Z,98655.70
2023-04-21T15:15:56.311Z,98652.02
2023-04-21T15:18:30.118Z,98653.54
2023-04-21T15:21:03.683Z,98654.05
2023-04-21T15:23:37.961Z,98654.14
2023-04-21T15:26:11.618Z,98644.44
2023-04-21T15:28:45.356Z,98656.62
2023-04-21T15:31:18.933Z,98654.69
2023-04-21T15:33:52.889Z,98658.99
2023-04-21T15:36:27.802Z,98656.73
2023-04-21T15:39:02.038Z,98662.55
2023-04-21T15:41:35.941Z,98665.75
2023-04-21T15:44:10.687Z,98659.73
2023-04-21T15:46:44.644Z,98657.52
2023-04-21T15:49:18.547Z,98657.71
2023-04-21T15:51:52.464Z,98652.99
2023-04-21T15:54:26.707Z,98657.25
2023-04-21T15:57:01.184Z,98656.64
2023-04-21T15:59:34.990Z,98654.05
2023-04-21T16:02:09.732Z,98649.73
2023-04-21T16:04:44.700Z,98655.36
2023-04-21T16:07:19.635Z,98645.91
2023-04-21T16:09:53.790Z,98658.42
2023-04-21T16:12:27.478Z,98655.30
2023-04-21T16:15:16.124Z,98652.08
2023-04-21T16:17:37.754Z,98647.34
2023-04-21T16:20:14.838Z,98650.16
2023-04-21T16:22:49.885Z,98655.42
2023-04-21T16:25:24.004Z,98646.38
2023-04-21T16:27:58.078Z,98655.10
2023-04-21T16:30:32.934Z,98654.13
2023-04-21T16:33:06.867Z,98660.13
2023-04-21T16:35:40.857Z,98659.98
2023-04-21T16:38:14.942Z,98670.06
2023-04-21T16:40:49.878Z,98668.70
2023-04-21T16:43:23.828Z,98669.90
2023-04-21T16:45:58.020Z,98674.77
2023-04-21T16:48:31.640Z,98669.69
2023-04-21T16:51:05.909Z,98672.47
2023-04-21T16:53:40.373Z,98671.81
2023-04-21T16:56:14.917Z,98671.08
2023-04-21T16:58:48.463Z,98670.46
2023-04-21T17:01:22.174Z,98677.70
2023-04-21T17:03:56.070Z,98672.75
2023-04-21T17:06:32.094Z,98672.17
2023-04-21T17:09:05.847Z,98675.05
2023-04-21T17:11:40.360Z,98666.60
2023-04-21T17:14:14.128Z,98673.13
2023-04-21T17:16:47.657Z,98666.39
2023-04-21T17:19:21.373Z,98669.26
2023-04-21T17:21:54.312Z,98672.15
2023-04-21T17:24:41.383Z,98669.66
2023-04-21T17:27:03.248Z,98664.66
2023-04-21T17:29:36.953Z,98673.67
2023-04-21T17:32:12.788Z,98666.81
2023-04-21T17:34:46.358Z,98669.54
2023-04-21T17:37:20.675Z,98669.61
2023-04-21T17:39:54.707Z,98662.61
2023-04-21T17:42:28.005Z,98664.38
2023-04-21T17:45:02.437Z,98660.05
2023-04-21T17:47:37.483Z,98661.83
2023-04-21T17:50:12.976Z,98653.28
2023-04-21T17:52:46.620Z,98651.67
2023-04-21T17:55:20.691Z,98649.96
2023-04-21T17:57:54.062Z,98644.77
2023-04-21T18:00:27.816Z,98652.70
2023-04-21T18:03:01.378Z,98656.34
2023-04-21T18:05:35.098Z,98656.45
2023-04-21T18:08:08.864Z,98653.06
2023-04-21T18:10:42.213Z,98651.44
2023-04-21T18:13:15.489Z,98648.01
2023-04-21T18:15:48.777Z,98644.58
2023-04-21T18:18:22.193Z,98643.83
2023-04-21T18:20:55.612Z,98631.77
2023-04-21T18:23:28.760Z,98631.84
2023-04-21T18:26:02.101Z,98623.19
2023-04-21T18:28:35.706Z,98634.64
2023-04-21T18:31:09.068Z,98626.88
2023-04-21T18:33:42.902Z,98618.30
2023-04-21T18:36:15.820Z,98621.95
2023-04-21T18:38:49.608Z,98620.29
2023-04-21T18:41:23.203Z,98617.70
2023-04-21T18:43:56.985Z,98616.87
2023-04-21T18:46:30.295Z,98619.52
2023-04-21T18:49:03.771Z,98620.44
2023-04-21T18:51:41.119Z,98617.88
2023-04-21T18:54:14.624Z,98617.02
2023-04-21T18:56:48.456Z,98620.54
2023-04-21T18:59:22.259Z,98618.00
2023-04-21T19:01:56.230Z,98618.05
2023-04-21T19:04:29.587Z,98623.31
2023-04-21T19:07:02.999Z,98615.45
2023-04-21T19:09:36.008Z,98618.96
2023-04-21T19:12:09.718Z,98612.00
2023-04-21T19:14:47.470Z,98611.17
2023-04-21T19:17:18.211Z,98612.97
2023-04-21T19:19:51.967Z,98612.15
2023-04-21T19:22:25.691Z,98611.30
2023-04-21T19:24:59.012Z,98611.39
2023-04-21T19:27:32.703Z,98610.58
2023-04-21T19:30:07.266Z,98608.84
2023-04-21T19:32:40.486Z,98609.77
2023-04-21T19:35:13.827Z,98601.94
2023-04-21T19:37:47.331Z,98603.69
2023-04-21T19:40:21.365Z,98601.98
2023-04-21T19:42:54.631Z,98594.17
2023-04-21T19:45:28.452Z,98590.78
2023-04-21T19:48:02.098Z,98589.93
2023-04-21T19:50:36.234Z,98597.79
2023-04-21T19:53:12.145Z,98600.48
2023-04-21T19:55:51.824Z,98590.06
2023-04-21T19:58:39.508Z,98596.15
2023-04-21T20:01:04.602Z,98597.03
2023-04-21T20:03:40.105Z,98597.92
2023-04-21T20:06:16.046Z,98594.47
2023-04-21T20:08:51.581Z,98597.98
2023-04-21T20:11:29.081Z,98597.11
2023-04-21T20:14:03.810Z,98583.25
2023-04-21T20:16:39.747Z,98597.17
2023-04-21T20:19:15.250Z,98602.44
2023-04-21T20:21:49.865Z,98591.98
2023-04-21T20:24:23.214Z,98593.73
2023-04-21T20:26:57.615Z,98595.45
2023-04-21T20:29:33.587Z,98595.45
2023-04-21T20:32:08.363Z,98596.32
2023-04-21T20:34:45.417Z,98594.56
2023-04-21T20:40:22.673Z,98590.24
2023-04-21T20:42:56.690Z,98591.21
2023-04-21T20:45:44.820Z,98592.98
2023-04-21T20:48:21.761Z,98589.51
2023-04-21T20:50:56.026Z,98592.13
2023-04-21T20:53:29.358Z,98593.91
2023-04-21T20:56:02.632Z,98591.33
2023-04-21T20:58:37.843Z,98591.28
2023-04-21T21:01:11.378Z,98591.30
2023-04-21T21:03:45.629Z,98600.86
2023-04-21T21:06:19.875Z,98597.33
2023-04-21T21:08:53.385Z,98597.34
2023-04-21T21:11:26.922Z,98599.05
2023-04-21T21:14:26.186Z,98601.63
2023-04-21T21:17:03.356Z,98601.64
2023-04-21T21:19:36.787Z,98596.40
2023-04-21T21:22:11.337Z,98591.15
2023-04-21T21:24:44.777Z,98591.98
2023-04-21T21:27:18.087Z,98591.10
2023-04-21T21:29:51.132Z,98585.86
2023-04-21T21:32:24.619Z,98584.13
2023-04-21T21:34:57.833Z,98590.23
2023-04-21T21:37:31.377Z,98585.83
2023-04-21T21:40:10.947Z,98591.93
2023-04-21T21:42:44.165Z,98581.45
2023-04-21T21:45:17.682Z,98581.45
2023-04-21T21:47:51.851Z,98586.66
2023-04-21T21:50:25.210Z,98589.30
2023-04-21T21:52:58.316Z,98586.73
2023-04-21T21:55:31.387Z,98591.10
2023-04-21T21:58:05.258Z,98594.59
2023-04-21T22:00:39.459Z,98596.32
2023-04-21T22:03:13.136Z,98596.33
2023-04-21T22:05:46.465Z,98593.72
2023-04-21T22:08:19.710Z,98584.13
2023-04-21T22:10:52.712Z,98591.12
2023-04-21T22:13:26.053Z,98597.27
2023-04-21T22:15:59.188Z,98595.56
2023-04-21T22:18:32.428Z,98595.56
2023-04-21T22:21:05.984Z,98590.38
2023-04-21T22:23:39.187Z,98596.48
2023-04-21T22:26:12.626Z,98597.37
2023-04-21T22:28:47.561Z,98598.27
2023-04-21T22:31:21.037Z,98592.17
2023-04-21T22:33:54.165Z,98591.36
2023-04-21T22:36:27.485Z,98583.55
2023-04-21T22:39:00.520Z,98589.65
2023-04-21T22:41:33.765Z,98587.95
2023-04-21T22:44:06.884Z,98591.41
2023-04-21T22:46:42.828Z,98587.09
2023-04-21T22:49:17.336Z,98586.22
2023-04-21T22:51:51.353Z,98584.48
2023-04-21T22:54:24.582Z,98581.88
2023-04-21T22:56:57.601Z,98588.80
2023-04-21T22:59:31.400Z,98575.80
2023-04-21T23:02:05.501Z,98582.74
2023-04-21T23:04:38.843Z,98589.67
2023-04-21T23:07:11.965Z,98586.22
2023-04-21T23:09:45.311Z,98581.00
2023-04-21T23:12:18.399Z,98578.39
2023-04-21T23:14:51.914Z,98577.52
2023-04-21T23:17:25.204Z,98581.88
2023-04-21T23:19:58.968Z,98578.38
2023-04-21T23:22:33.613Z,98575.77
2023-04-21T23:25:07.876Z,98582.74
2023-04-21T23:27:41.204Z,98574.05
2023-04-21T23:30:15.998Z,98583.61
2023-04-21T23:32:50.457Z,98580.98
2023-04-21T23:35:24.069Z,98574.92
2023-04-21T23:37:57.581Z,98570.55
2023-04-21T23:40:30.867Z,98570.58
2023-04-21T23:43:04.562Z,98570.55
2023-04-21T23:45:38.013Z,98577.51
2023-04-21T23:48:11.831Z,98575.75
2023-04-21T23:50:45.527Z,98567.92
2023-04-21T23:53:19.081Z,98565.27
2023-04-21T23:55:52.237Z,98565.25
2023-04-21T23:58:26.218Z,98573.86
